createdAt,value
2023-02-01T00:00:24.796Z,3.81
2023-02-01T00:02:51.560Z,4.41
2023-02-01T00:05:18.424Z,3.86
2023-02-01T00:07:47.782Z,3.40
2023-02-01T00:10:14.591Z,3.96
2023-02-01T00:12:41.273Z,4.29
2023-02-01T00:15:08.330Z,4.43
2023-02-01T00:17:35.229Z,4.58
2023-02-01T00:20:02.005Z,4.63
2023-02-01T00:22:28.790Z,4.46
2023-02-01T00:24:55.519Z,4.63
2023-02-01T00:27:22.809Z,4.55
2023-02-01T00:29:49.735Z,4.26
2023-02-01T00:32:16.670Z,4.58
2023-02-01T00:34:43.522Z,4.29
2023-02-01T00:37:10.422Z,4.58
2023-02-01T00:39:37.599Z,4.63
2023-02-01T00:42:04.750Z,3.23
2023-02-01T00:44:34.383Z,4.15
2023-02-01T00:47:01.470Z,4.33
2023-02-01T00:49:29.093Z,4.60
2023-02-01T00:51:56.286Z,3.78
2023-02-01T00:54:23.043Z,3.96
2023-02-01T00:56:49.831Z,4.18
2023-02-01T00:59:16.584Z,4.40
2023-02-01T01:01:43.365Z,4.46
2023-02-01T01:04:10.124Z,4.40
2023-02-01T01:06:36.967Z,4.39
2023-02-01T01:09:05.512Z,4.14
2023-02-01T01:11:33.542Z,4.10
2023-02-01T01:14:00.907Z,4.40
2023-02-01T01:16:29.009Z,4.39
2023-02-01T01:18:56.223Z,4.48
2023-02-01T01:21:23.320Z,4.68
2023-02-01T01:23:50.150Z,4.72
2023-02-01T01:26:19.183Z,4.40
2023-02-01T01:28:46.081Z,4.47
2023-02-01T01:31:13.524Z,4.12
2023-02-01T01:33:40.398Z,4.40
2023-02-01T01:36:13.618Z,4.51
2023-02-01T01:38:41.001Z,4.24
2023-02-01T01:41:08.032Z,4.24
2023-02-01T01:43:51.626Z,4.16
2023-02-01T01:46:19.200Z,4.18
2023-02-01T01:48:46.965Z,4.16
2023-02-01T01:51:15.470Z,4.19
2023-02-01T01:53:50.876Z,4.05
2023-02-01T01:56:18.438Z,4.10
2023-02-01T01:58:45.308Z,4.12
2023-02-01T02:01:12.185Z,4.01
2023-02-01T02:03:45.969Z,4.01
2023-02-01T02:06:18.637Z,3.69
2023-02-01T02:08:45.342Z,3.93
2023-02-01T02:11:13.527Z,3.85
2023-02-01T02:13:42.650Z,3.87
2023-02-01T02:16:12.754Z,3.97
2023-02-01T02:18:42.768Z,3.54
2023-02-01T02:21:19.851Z,3.22
2023-02-01T02:23:52.605Z,3.49
2023-02-01T02:26:25.272Z,3.18
2023-02-01T02:29:04.163Z,3.38
2023-02-01T02:32:16.968Z,3.34
2023-02-01T02:34:46.457Z,3.45
2023-02-01T02:37:37.788Z,3.08
2023-02-01T02:40:07.836Z,3.40
2023-02-01T02:43:07.386Z,3.57
2023-02-01T02:46:01.727Z,3.24
2023-02-01T02:48:32.265Z,3.41
2023-02-01T02:51:24.221Z,3.48
2023-02-01T02:54:35.518Z,3.59
2023-02-01T02:57:22.383Z,3.47
2023-02-01T03:00:08.131Z,3.52
2023-02-01T03:02:53.828Z,3.45
2023-02-01T03:05:22.018Z,2.22
2023-02-01T03:08:02.514Z,2.67
2023-02-01T03:10:41.357Z,3.07
2023-02-01T03:13:14.188Z,3.24
2023-02-01T03:15:44.656Z,3.02
2023-02-01T03:18:18.078Z,3.04
2023-02-01T03:20:47.854Z,3.19
2023-02-01T03:23:17.105Z,3.28
2023-02-01T03:25:44.135Z,3.15
2023-02-01T03:28:11.435Z,3.14
2023-02-01T03:30:40.084Z,2.68
2023-02-01T03:33:12.707Z,2.86
2023-02-01T03:35:42.378Z,3.04
2023-02-01T03:38:18.149Z,3.01
2023-02-01T03:40:47.738Z,2.49
2023-02-01T03:43:18.574Z,3.11
2023-02-01T03:45:47.613Z,2.65
2023-02-01T03:48:15.914Z,3.02
2023-02-01T03:50:46.120Z,3.33
2023-02-01T03:53:16.090Z,3.46
2023-02-01T03:55:43.207Z,3.42
2023-02-01T03:58:20.428Z,3.45
2023-02-01T04:00:57.967Z,3.49
2023-02-01T04:03:26.093Z,3.02
2023-02-01T04:05:53.207Z,3.29
2023-02-01T04:08:23.224Z,3.22
2023-02-01T04:10:50.239Z,3.18
2023-02-01T04:13:17.138Z,3.45
2023-02-01T04:15:44.364Z,3.59
2023-02-01T04:18:12.044Z,3.44
2023-02-01T04:20:38.696Z,3.46
2023-02-01T04:23:05.328Z,3.62
2023-02-01T04:25:32.046Z,3.69
2023-02-01T04:27:58.748Z,3.57
2023-02-01T04:30:25.692Z,3.50
2023-02-01T04:32:52.508Z,3.75
2023-02-01T04:35:19.213Z,3.37
2023-02-01T04:37:46.016Z,3.73
2023-02-01T04:40:12.934Z,3.45
2023-02-01T04:42:39.655Z,3.45
2023-02-01T04:45:06.738Z,3.14
2023-02-01T04:47:33.460Z,3.40
2023-02-01T04:50:00.135Z,3.63
2023-02-01T04:52:28.539Z,3.44
2023-02-01T04:54:59.367Z,3.58
2023-02-01T04:57:26.270Z,3.13
2023-02-01T04:59:52.895Z,3.39
2023-02-01T05:02:19.592Z,3.63
2023-02-01T05:04:46.405Z,3.72
2023-02-01T05:07:13.204Z,3.89
2023-02-01T05:09:39.992Z,3.76
2023-02-01T05:12:25.605Z,3.73
2023-02-01T05:14:52.782Z,2.82
2023-02-01T05:17:19.384Z,3.44
2023-02-01T05:19:46.537Z,3.65
2023-02-01T05:22:14.587Z,3.77
2023-02-01T05:24:41.406Z,3.03
2023-02-01T05:27:08.265Z,3.18
2023-02-01T05:29:34.947Z,3.30
2023-02-01T05:32:19.392Z,3.52
2023-02-01T05:34:48.334Z,3.60
2023-02-01T05:37:15.160Z,2.86
2023-02-01T05:39:41.855Z,3.34
2023-02-01T05:42:08.590Z,3.42
2023-02-01T05:44:35.327Z,3.01
2023-02-01T05:47:02.009Z,2.68
2023-02-01T05:49:28.755Z,3.38
2023-02-01T05:51:55.498Z,3.60
2023-02-01T05:54:22.233Z,2.75
2023-02-01T05:56:49.014Z,3.14
2023-02-01T05:59:15.766Z,3.31
2023-02-01T06:01:42.408Z,2.95
2023-02-01T06:04:09.325Z,3.59
2023-02-01T06:06:36.048Z,3.77
2023-02-01T06:09:02.789Z,3.10
2023-02-01T06:11:32.592Z,3.77
2023-02-01T06:14:00.256Z,3.72
2023-02-01T06:16:27.241Z,3.21
2023-02-01T06:18:54.973Z,3.75
2023-02-01T06:21:27.616Z,2.59
2023-02-01T06:23:55.192Z,2.62
2023-02-01T06:26:22.351Z,3.03
2023-02-01T06:28:49.186Z,3.31
2023-02-01T06:31:16.326Z,3.36
2023-02-01T06:33:43.423Z,3.72
2023-02-01T06:36:11.035Z,3.77
2023-02-01T06:38:37.875Z,4.16
2023-02-01T06:41:05.131Z,3.93
2023-02-01T06:43:32.336Z,3.67
2023-02-01T06:46:10.807Z,4.00
2023-02-01T06:48:37.610Z,4.30
2023-02-01T06:51:04.834Z,4.25
2023-02-01T06:53:31.921Z,4.30
2023-02-01T06:56:00.125Z,4.46
2023-02-01T06:58:34.229Z,4.28
2023-02-01T07:01:10.335Z,4.38
2023-02-01T07:03:37.616Z,4.47
2023-02-01T07:06:06.311Z,4.44
2023-02-01T07:08:33.836Z,4.71
2023-02-01T07:11:11.248Z,4.61
2023-02-01T07:13:38.170Z,4.65
2023-02-01T07:16:07.173Z,3.95
2023-02-01T07:18:34.377Z,4.39
2023-02-01T07:21:01.496Z,4.40
2023-02-01T07:23:28.636Z,4.42
2023-02-01T07:26:03.346Z,4.98
2023-02-01T07:28:31.569Z,4.39
2023-02-01T07:31:32.576Z,2.77
2023-02-01T07:34:00.274Z,3.34
2023-02-01T07:36:29.062Z,4.41
2023-02-01T07:38:56.878Z,4.67
2023-02-01T07:41:23.925Z,4.83
2023-02-01T07:43:53.318Z,4.77
2023-02-01T07:46:21.970Z,4.57
2023-02-01T07:48:49.905Z,3.92
2023-02-01T07:51:17.613Z,4.55
2023-02-01T07:53:45.226Z,4.77
2023-02-01T07:56:13.612Z,4.95
2023-02-01T07:58:40.738Z,5.06
2023-02-01T08:01:22.795Z,3.97
2023-02-01T08:03:50.235Z,4.56
2023-02-01T08:06:17.083Z,5.07
2023-02-01T08:08:46.364Z,4.96
2023-02-01T08:11:14.679Z,4.99
2023-02-01T08:13:41.604Z,5.11
2023-02-01T08:16:09.559Z,5.25
2023-02-01T08:18:37.467Z,5.32
2023-02-01T08:21:07.778Z,5.51
2023-02-01T08:23:35.085Z,5.36
2023-02-01T08:26:21.609Z,5.34
2023-02-01T08:28:50.586Z,5.42
2023-02-01T08:31:18.563Z,5.65
2023-02-01T08:33:48.934Z,5.71
2023-02-01T08:36:15.683Z,5.44
2023-02-01T08:38:42.900Z,5.64
2023-02-01T08:41:10.987Z,5.62
2023-02-01T08:43:37.848Z,5.96
2023-02-01T08:46:05.316Z,5.85
2023-02-01T08:48:32.488Z,6.19
2023-02-01T08:51:02.337Z,6.36
2023-02-01T08:53:29.108Z,5.51
2023-02-01T08:55:57.896Z,4.72
2023-02-01T08:58:27.389Z,4.85
2023-02-01T09:00:54.410Z,4.14
2023-02-01T09:03:21.340Z,5.02
2023-02-01T09:05:51.977Z,4.15
2023-02-01T09:08:21.348Z,5.54
2023-02-01T09:10:48.149Z,5.12
2023-02-01T09:13:14.943Z,5.38
2023-02-01T09:15:41.793Z,5.51
2023-02-01T09:18:08.785Z,5.54
2023-02-01T09:20:35.637Z,5.74
2023-02-01T09:23:02.417Z,5.12
2023-02-01T09:25:29.577Z,5.69
2023-02-01T09:27:56.396Z,5.94
2023-02-01T09:30:23.406Z,5.65
2023-02-01T09:32:50.419Z,6.40
2023-02-01T09:35:17.574Z,6.44
2023-02-01T09:37:44.387Z,4.96
2023-02-01T09:40:15.156Z,5.61
2023-02-01T09:42:49.289Z,5.97
2023-02-01T09:45:25.605Z,6.07
2023-02-01T09:47:57.260Z,5.46
2023-02-01T09:50:35.299Z,5.96
2023-02-01T09:53:05.386Z,6.42
2023-02-01T09:55:43.050Z,6.79
2023-02-01T09:58:23.789Z,7.10
2023-02-01T10:00:55.169Z,7.47
2023-02-01T10:03:22.050Z,7.84
2023-02-01T10:05:51.936Z,8.55
2023-02-01T10:08:19.943Z,8.81
2023-02-01T10:10:55.887Z,9.13
2023-02-01T10:13:46.233Z,9.98
2023-02-01T10:16:27.319Z,10.87
2023-02-01T10:19:14.590Z,11.62
2023-02-01T10:21:46.461Z,12.33
2023-02-01T10:24:26.467Z,12.92
2023-02-01T10:27:07.669Z,12.50
2023-02-01T10:29:47.065Z,12.87
2023-02-01T10:32:24.638Z,12.89
2023-02-01T10:34:56.831Z,12.85
2023-02-01T10:37:26.607Z,12.77
2023-02-01T10:39:57.464Z,12.39
2023-02-01T10:42:29.162Z,12.88
2023-02-01T10:44:57.917Z,12.58
2023-02-01T10:47:25.295Z,11.93
2023-02-01T10:50:15.970Z,11.96
2023-02-01T10:52:48.979Z,11.80
2023-02-01T10:55:28.450Z,12.04
2023-02-01T10:57:59.317Z,11.38
2023-02-01T11:00:26.335Z,11.00
2023-02-01T11:02:53.925Z,11.58
2023-02-01T11:05:20.988Z,11.17
2023-02-01T11:07:49.958Z,11.40
2023-02-01T11:10:41.768Z,11.17
2023-02-01T11:13:18.846Z,11.37
2023-02-01T11:15:49.033Z,9.31
2023-02-01T11:18:17.852Z,8.74
2023-02-01T11:20:48.064Z,8.30
2023-02-01T11:23:19.097Z,8.29
2023-02-01T11:26:01.465Z,7.76
2023-02-01T11:28:31.025Z,6.83
2023-02-01T11:31:00.023Z,7.40
2023-02-01T11:33:33.089Z,6.81
2023-02-01T11:35:59.869Z,7.07
2023-02-01T11:38:30.931Z,7.05
2023-02-01T11:41:25.412Z,6.99
2023-02-01T11:43:53.640Z,6.79
2023-02-01T11:46:26.120Z,6.47
2023-02-01T11:48:54.095Z,6.89
2023-02-01T11:51:26.732Z,7.05
2023-02-01T11:54:25.189Z,7.47
2023-02-01T11:56:57.905Z,7.34
2023-02-01T11:59:40.983Z,6.63
2023-02-01T12:02:22.901Z,7.36
2023-02-01T12:05:01.359Z,7.26
2023-02-01T12:07:37.156Z,7.05
2023-02-01T12:10:16.258Z,7.07
2023-02-01T12:12:57.177Z,7.18
2023-02-01T12:15:30.467Z,6.90
2023-02-01T12:17:57.162Z,7.91
2023-02-01T12:20:25.008Z,7.55
2023-02-01T12:23:03.066Z,7.80
2023-02-01T12:25:43.217Z,8.00
2023-02-01T12:28:19.175Z,7.64
2023-02-01T12:30:49.084Z,8.04
2023-02-01T12:33:21.055Z,7.77
2023-02-01T12:35:50.591Z,8.09
2023-02-01T12:38:47.409Z,8.09
2023-02-01T12:41:32.631Z,8.14
2023-02-01T12:44:08.060Z,8.12
2023-02-01T12:46:39.311Z,8.33
2023-02-01T12:49:06.095Z,8.02
2023-02-01T12:51:37.895Z,8.05
2023-02-01T12:54:13.899Z,7.66
2023-02-01T12:56:53.954Z,8.04
2023-02-01T12:59:25.916Z,8.29
2023-02-01T13:02:02.475Z,8.67
2023-02-01T13:04:41.057Z,8.42
2023-02-01T13:07:11.165Z,7.79
2023-02-01T13:09:40.825Z,8.38
2023-02-01T13:12:26.632Z,9.14
2023-02-01T13:14:57.639Z,7.58
2023-02-01T13:17:26.529Z,7.30
2023-02-01T13:20:00.865Z,8.04
2023-02-01T13:22:34.258Z,7.95
2023-02-01T13:25:05.685Z,7.38
2023-02-01T13:27:33.442Z,6.97
2023-02-01T13:30:02.320Z,7.26
2023-02-01T13:32:54.191Z,6.58
2023-02-01T13:35:18.831Z,6.67
2023-02-01T13:37:53.950Z,6.89
2023-02-01T13:40:26.536Z,6.72
2023-02-01T13:42:55.756Z,7.72
2023-02-01T13:45:25.276Z,8.37
2023-02-01T13:47:57.985Z,7.47
2023-02-01T13:50:32.244Z,7.21
2023-02-01T13:53:08.248Z,8.05
2023-02-01T13:55:50.827Z,8.27
2023-02-01T13:58:30.841Z,8.18
2023-02-01T14:01:20.434Z,8.78
2023-02-01T14:03:57.732Z,7.73
2023-02-01T14:06:27.677Z,8.70
2023-02-01T14:09:14.649Z,8.84
2023-02-01T14:11:45.122Z,9.09
2023-02-01T14:14:14.895Z,9.02
2023-02-01T14:16:41.940Z,9.19
2023-02-01T14:19:27.247Z,9.15
2023-02-01T14:22:02.182Z,9.16
2023-02-01T14:24:30.769Z,9.37
2023-02-01T14:26:59.140Z,9.32
2023-02-01T14:29:36.570Z,8.81
2023-02-01T14:32:13.745Z,9.09
2023-02-01T14:34:51.862Z,9.36
2023-02-01T14:37:18.645Z,9.71
2023-02-01T14:40:00.180Z,9.83
2023-02-01T14:42:45.760Z,9.80
2023-02-01T14:45:18.777Z,9.78
2023-02-01T14:47:49.599Z,9.89
2023-02-01T14:50:26.813Z,10.20
2023-02-01T14:53:05.810Z,10.45
2023-02-01T14:55:53.361Z,10.33
2023-02-01T14:58:34.694Z,10.59
2023-02-01T15:01:04.855Z,10.38
2023-02-01T15:03:37.246Z,10.27
2023-02-01T15:06:11.187Z,10.26
2023-02-01T15:08:40.527Z,10.24
2023-02-01T15:11:15.472Z,10.02
2023-02-01T15:13:48.953Z,10.24
2023-02-01T15:16:16.946Z,10.08
2023-02-01T15:18:45.737Z,10.02
2023-02-01T15:21:28.190Z,9.97
2023-02-01T15:24:14.207Z,10.24
2023-02-01T15:26:41.259Z,9.57
2023-02-01T15:29:13.744Z,9.35
2023-02-01T15:31:47.209Z,9.43
2023-02-01T15:37:05.712Z,9.00
2023-02-01T15:39:33.374Z,8.79
2023-02-01T15:42:03.282Z,8.53
2023-02-01T15:44:32.884Z,8.25
2023-02-01T15:47:00.831Z,8.62
2023-02-01T15:49:32.256Z,8.27
2023-02-01T15:52:02.890Z,8.32
2023-02-01T15:54:45.399Z,8.37
2023-02-01T15:57:12.118Z,8.05
2023-02-01T15:59:43.096Z,7.91
2023-02-01T16:02:30.321Z,7.56
2023-02-01T16:04:59.457Z,7.59
2023-02-01T16:07:31.123Z,7.01
2023-02-01T16:09:59.598Z,7.19
2023-02-01T16:12:36.315Z,6.95
2023-02-01T16:15:03.491Z,7.16
2023-02-01T16:17:30.246Z,7.89
2023-02-01T16:19:58.407Z,7.87
2023-02-01T16:22:25.517Z,7.59
2023-02-01T16:24:52.264Z,7.97
2023-02-01T16:27:19.185Z,7.95
2023-02-01T16:29:45.856Z,7.78
2023-02-01T16:32:18.317Z,8.04
2023-02-01T16:34:48.120Z,8.25
2023-02-01T16:37:19.016Z,7.87
2023-02-01T16:39:45.921Z,8.18
2023-02-01T16:42:13.478Z,7.35
2023-02-01T16:44:40.243Z,7.97
2023-02-01T16:47:12.728Z,7.99
2023-02-01T16:49:41.757Z,8.08
2023-02-01T16:52:11.528Z,8.22
2023-02-01T16:54:40.268Z,8.37
2023-02-01T16:57:11.868Z,8.24
2023-02-01T16:59:38.855Z,8.10
2023-02-01T17:02:05.528Z,8.35
2023-02-01T17:04:34.476Z,8.05
2023-02-01T17:07:03.907Z,8.09
2023-02-01T17:09:30.667Z,8.47
2023-02-01T17:11:57.330Z,8.53
2023-02-01T17:14:26.091Z,8.74
2023-02-01T17:16:53.077Z,8.57
2023-02-01T17:19:24.798Z,8.72
2023-02-01T17:21:55.122Z,8.81
2023-02-01T17:24:23.547Z,8.84
2023-02-01T17:26:51.791Z,8.87
2023-02-01T17:29:19.048Z,8.82
2023-02-01T17:31:47.195Z,8.86
2023-02-01T17:34:19.200Z,8.29
2023-02-01T17:36:49.001Z,8.36
2023-02-01T17:39:36.079Z,8.43
2023-02-01T17:42:03.761Z,8.46
2023-02-01T17:44:30.648Z,8.53
2023-02-01T17:46:59.498Z,8.58
2023-02-01T17:49:28.909Z,8.29
2023-02-01T17:51:56.394Z,8.53
2023-02-01T17:54:23.186Z,7.41
2023-02-01T17:56:49.988Z,6.97
2023-02-01T17:59:17.676Z,7.10
2023-02-01T18:01:44.354Z,7.45
2023-02-01T18:04:16.418Z,7.50
2023-02-01T18:06:43.144Z,7.59
2023-02-01T18:09:09.847Z,6.41
2023-02-01T18:11:36.567Z,6.49
2023-02-01T18:14:03.697Z,6.49
2023-02-01T18:16:31.832Z,7.07
2023-02-01T18:19:02.057Z,7.36
2023-02-01T18:21:32.932Z,7.41
2023-02-01T18:24:00.736Z,7.37
2023-02-01T18:26:27.459Z,7.47
2023-02-01T18:28:54.238Z,7.39
2023-02-01T18:31:22.957Z,7.52
2023-02-01T18:33:50.587Z,7.57
2023-02-01T18:36:17.391Z,7.74
2023-02-01T18:38:44.211Z,5.56
2023-02-01T18:41:13.358Z,5.65
2023-02-01T18:43:40.104Z,6.10
2023-02-01T18:46:07.585Z,6.68
2023-02-01T18:48:34.458Z,6.94
2023-02-01T18:51:01.237Z,6.73
2023-02-01T18:53:27.962Z,6.31
2023-02-01T18:55:55.794Z,6.96
2023-02-01T18:58:26.547Z,7.16
2023-02-01T19:00:57.822Z,7.19
2023-02-01T19:03:26.993Z,7.26
2023-02-01T19:05:57.362Z,7.23
2023-02-01T19:08:25.933Z,7.30
2023-02-01T19:10:53.405Z,7.30
2023-02-01T19:13:26.026Z,7.27
2023-02-01T19:15:53.195Z,7.19
2023-02-01T19:18:20.576Z,7.12
2023-02-01T19:20:50.811Z,7.28
2023-02-01T19:23:20.833Z,7.17
2023-02-01T19:25:48.299Z,7.32
2023-02-01T19:28:15.758Z,7.24
2023-02-01T19:30:42.721Z,7.32
2023-02-01T19:33:09.465Z,7.25
2023-02-01T19:35:36.350Z,7.13
2023-02-01T19:38:03.149Z,6.54
2023-02-01T19:40:30.058Z,6.51
2023-02-01T19:42:56.850Z,6.69
2023-02-01T19:45:23.976Z,6.68
2023-02-01T19:47:51.070Z,6.08
2023-02-01T19:50:19.617Z,6.35
2023-02-01T19:52:46.776Z,6.31
2023-02-01T19:55:13.742Z,6.21
2023-02-01T19:57:40.505Z,6.26
2023-02-01T20:00:08.363Z,6.38
2023-02-01T20:02:34.363Z,6.38
2023-02-01T20:05:01.251Z,6.18
2023-02-01T20:07:27.968Z,6.27
2023-02-01T20:09:54.709Z,5.04
2023-02-01T20:12:21.422Z,4.45
2023-02-01T20:14:48.099Z,5.82
2023-02-01T20:17:15.432Z,5.99
2023-02-01T20:19:42.365Z,5.89
2023-02-01T20:22:09.274Z,6.05
2023-02-01T20:24:36.228Z,6.22
2023-02-01T20:27:03.838Z,6.10
2023-02-01T20:29:30.634Z,5.86
2023-02-01T20:31:57.391Z,6.03
2023-02-01T20:34:24.087Z,6.08
2023-02-01T20:36:51.274Z,6.07
2023-02-01T20:39:18.036Z,6.11
2023-02-01T20:41:44.770Z,6.09
2023-02-01T20:44:11.492Z,6.29
2023-02-01T20:46:38.309Z,6.08
2023-02-01T20:49:05.038Z,5.73
2023-02-01T20:51:31.763Z,5.91
2023-02-01T20:53:58.541Z,5.75
2023-02-01T20:56:25.196Z,5.55
2023-02-01T20:58:51.868Z,5.67
2023-02-01T21:01:18.575Z,5.96
2023-02-01T21:03:45.329Z,5.22
2023-02-01T21:06:12.843Z,5.66
2023-02-01T21:08:41.559Z,5.91
2023-02-01T21:11:10.816Z,5.69
2023-02-01T21:13:43.072Z,5.68
2023-02-01T21:16:11.296Z,5.78
2023-02-01T21:18:38.244Z,5.37
2023-02-01T21:21:05.939Z,5.15
2023-02-01T21:23:32.726Z,4.86
2023-02-01T21:26:02.696Z,4.95
2023-02-01T21:28:29.407Z,4.44
2023-02-01T21:30:56.146Z,4.84
2023-02-01T21:33:22.827Z,4.10
2023-02-01T21:35:50.377Z,4.84
2023-02-01T21:38:17.456Z,4.53
2023-02-01T21:40:44.179Z,4.52
2023-02-01T21:43:10.877Z,4.87
2023-02-01T21:45:41.431Z,5.06
2023-02-01T21:48:10.326Z,4.70
2023-02-01T21:50:37.086Z,5.01
2023-02-01T21:53:03.879Z,5.05
2023-02-01T21:55:30.562Z,4.89
2023-02-01T21:57:57.255Z,5.06
2023-02-01T22:00:24.187Z,4.93
2023-02-01T22:02:50.868Z,5.18
2023-02-01T22:05:17.719Z,4.50
2023-02-01T22:07:44.435Z,5.05
2023-02-01T22:10:12.745Z,4.79
2023-02-01T22:12:39.416Z,4.67
2023-02-01T22:15:06.335Z,4.69
2023-02-01T22:17:33.212Z,4.09
2023-02-01T22:20:00.176Z,3.74
2023-02-01T22:22:26.900Z,4.43
2023-02-01T22:24:54.630Z,4.76
2023-02-01T22:27:21.332Z,4.59
2023-02-01T22:29:57.277Z,4.16
2023-02-01T22:32:23.958Z,4.21
2023-02-01T22:34:50.719Z,3.19
2023-02-01T22:37:17.381Z,3.94
2023-02-01T22:39:44.028Z,3.55
2023-02-01T22:42:10.860Z,3.59
2023-02-01T22:44:37.552Z,4.51
2023-02-01T22:47:04.276Z,4.09
2023-02-01T22:49:30.919Z,4.76
2023-02-01T22:51:58.406Z,4.68
2023-02-01T22:54:25.023Z,4.66
2023-02-01T22:56:51.855Z,5.08
2023-02-01T22:59:18.580Z,5.01
2023-02-01T23:01:45.388Z,4.74
2023-02-01T23:04:13.359Z,4.64
2023-02-01T23:06:40.416Z,5.08
2023-02-01T23:09:17.781Z,5.01
2023-02-01T23:11:44.970Z,4.89
2023-02-01T23:14:12.686Z,3.59
2023-02-01T23:16:39.588Z,4.74
2023-02-01T23:19:06.820Z,5.19
2023-02-01T23:21:33.806Z,4.64
2023-02-01T23:24:01.574Z,4.99
2023-02-01T23:26:29.406Z,5.15
2023-02-01T23:28:56.687Z,5.08
2023-02-01T23:31:25.304Z,5.37
2023-02-01T23:33:56.934Z,4.63
2023-02-01T23:36:24.749Z,5.07
2023-02-01T23:38:51.510Z,5.02
2023-02-01T23:41:19.401Z,5.09
2023-02-01T23:43:59.280Z,5.21
2023-02-01T23:46:25.984Z,5.41
2023-02-01T23:48:52.917Z,4.65
2023-02-01T23:51:20.093Z,4.92
2023-02-01T23:53:46.898Z,4.97
2023-02-01T23:56:25.089Z,4.66
2023-02-01T23:58:52.207Z,4.08
